sensor_id;sensor_type;location;lat;lon;timestamp;pressure;altitude;pressure_sealevel;temperature;humidity
48614;BME280;34408;51.426;5.444;2023-08-24T00:00:01;101724.63;;;23.54;52.12
48614;BME280;34408;51.426;5.444;2023-08-24T00:02:31;101717.22;;;23.54;52.19
48614;BME280;34408;51.426;5.444;2023-08-24T00:04:59;101713.06;;;23.52;52.25
48614;BME280;34408;51.426;5.444;2023-08-24T00:07:27;101710.34;;;23.52;52.09
48614;BME280;34408;51.426;5.444;2023-08-24T00:09:55;101716.09;;;23.50;52.37
48614;BME280;34408;51.426;5.444;2023-08-24T00:12:23;101718.31;;;23.48;52.40
48614;BME280;34408;51.426;5.444;2023-08-24T00:14:53;101719.44;;;23.47;52.31
48614;BME280;34408;51.426;5.444;2023-08-24T00:17:21;101713.13;;;23.47;52.04
48614;BME280;34408;51.426;5.444;2023-08-24T00:19:49;101709.56;;;23.46;52.43
48614;BME280;34408;51.426;5.444;2023-08-24T00:22:17;101696.94;;;23.45;52.07
48614;BME280;34408;51.426;5.444;2023-08-24T00:24:45;101692.56;;;23.44;52.46
48614;BME280;34408;51.426;5.444;2023-08-24T00:27:13;101697.53;;;23.42;52.26
48614;BME280;34408;51.426;5.444;2023-08-24T00:29:41;101695.88;;;23.41;52.20
48614;BME280;34408;51.426;5.444;2023-08-24T00:32:10;101696.16;;;23.40;51.87
48614;BME280;34408;51.426;5.444;2023-08-24T00:34:38;101690.16;;;23.37;52.50
48614;BME280;34408;51.426;5.444;2023-08-24T00:37:06;101680.28;;;23.36;52.72
48614;BME280;34408;51.426;5.444;2023-08-24T00:39:34;101678.94;;;23.34;52.53
48614;BME280;34408;51.426;5.444;2023-08-24T00:42:02;101689.09;;;23.33;52.63
48614;BME280;34408;51.426;5.444;2023-08-24T00:44:30;101685.81;;;23.31;52.34
48614;BME280;34408;51.426;5.444;2023-08-24T00:46:58;101680.63;;;23.30;52.48
48614;BME280;34408;51.426;5.444;2023-08-24T00:49:28;101683.34;;;23.30;52.47
48614;BME280;34408;51.426;5.444;2023-08-24T00:51:56;101675.69;;;23.27;52.56
48614;BME280;34408;51.426;5.444;2023-08-24T00:56:53;101680.13;;;23.23;52.27
48614;BME280;34408;51.426;5.444;2023-08-24T00:59:21;101683.97;;;23.22;52.81
48614;BME280;34408;51.426;5.444;2023-08-24T01:01:50;101672.47;;;23.20;53.01
48614;BME280;34408;51.426;5.444;2023-08-24T01:04:18;101668.38;;;23.17;53.07
48614;BME280;34408;51.426;5.444;2023-08-24T01:06:48;101680.44;;;23.16;52.61
48614;BME280;34408;51.426;5.444;2023-08-24T01:09:15;101681.56;;;23.15;53.30
48614;BME280;34408;51.426;5.444;2023-08-24T01:11:50;101677.47;;;23.13;53.15
48614;BME280;34408;51.426;5.444;2023-08-24T01:14:30;101675.81;;;23.12;53.15
48614;BME280;34408;51.426;5.444;2023-08-24T01:17:03;101670.63;;;23.10;53.07
48614;BME280;34408;51.426;5.444;2023-08-24T01:19:38;101671.72;;;23.09;53.31
48614;BME280;34408;51.426;5.444;2023-08-24T01:22:20;101677.78;;;23.06;53.14
48614;BME280;34408;51.426;5.444;2023-08-24T01:24:55;101677.25;;;23.04;53.31
48614;BME280;34408;51.426;5.444;2023-08-24T01:27:32;101673.69;;;23.03;52.79
48614;BME280;34408;51.426;5.444;2023-08-24T01:30:02;101673.97;;;23.02;53.16
48614;BME280;34408;51.426;5.444;2023-08-24T01:32:30;101646.09;;;22.90;53.04
48614;BME280;34408;51.426;5.444;2023-08-24T01:34:58;101658.09;;;22.99;53.16
48614;BME280;34408;51.426;5.444;2023-08-24T01:37:26;101652.34;;;22.95;53.45
48614;BME280;34408;51.426;5.444;2023-08-24T01:40:00;101659.75;;;22.95;53.15
48614;BME280;34408;51.426;5.444;2023-08-24T01:42:35;101669.91;;;22.94;53.39
48614;BME280;34408;51.426;5.444;2023-08-24T01:45:06;101674.84;;;22.92;53.77
48614;BME280;34408;51.426;5.444;2023-08-24T01:47:36;101670.47;;;22.91;53.11
48614;BME280;34408;51.426;5.444;2023-08-24T01:50:06;101668.84;;;22.90;53.46
48614;BME280;34408;51.426;5.444;2023-08-24T01:52:35;101658.44;;;22.87;53.49
48614;BME280;34408;51.426;5.444;2023-08-24T01:55:04;101662.00;;;22.88;53.72
48614;BME280;34408;51.426;5.444;2023-08-24T01:57:33;101677.91;;;22.86;53.71
48614;BME280;34408;51.426;5.444;2023-08-24T02:00:02;101673.53;;;22.85;53.41
48614;BME280;34408;51.426;5.444;2023-08-24T02:02:34;101672.72;;;22.84;53.68
48614;BME280;34408;51.426;5.444;2023-08-24T02:05:03;101676.56;;;22.83;53.42
48614;BME280;34408;51.426;5.444;2023-08-24T02:07:31;101670.25;;;22.83;53.21
48614;BME280;34408;51.426;5.444;2023-08-24T02:09:59;101663.97;;;22.82;53.34
48614;BME280;34408;51.426;5.444;2023-08-24T02:12:27;101644.78;;;22.82;53.67
48614;BME280;34408;51.426;5.444;2023-08-24T02:14:56;101634.91;;;22.81;53.63
48614;BME280;34408;51.426;5.444;2023-08-24T02:17:25;101639.00;;;22.79;53.53
48614;BME280;34408;51.426;5.444;2023-08-24T02:19:54;101639.88;;;22.79;53.63
48614;BME280;34408;51.426;5.444;2023-08-24T02:22:22;101642.84;;;22.78;53.70
48614;BME280;34408;51.426;5.444;2023-08-24T02:24:50;101645.59;;;22.78;53.46
48614;BME280;34408;51.426;5.444;2023-08-24T02:27:19;101653.56;;;22.74;53.57
48614;BME280;34408;51.426;5.444;2023-08-24T02:29:47;101649.44;;;22.77;53.46
48614;BME280;34408;51.426;5.444;2023-08-24T02:32:16;101653.28;;;22.76;53.88
48614;BME280;34408;51.426;5.444;2023-08-24T02:34:44;101655.22;;;22.75;53.65
48614;BME280;34408;51.426;5.444;2023-08-24T02:37:12;101643.72;;;22.73;53.50
48614;BME280;34408;51.426;5.444;2023-08-24T02:39:40;101644.81;;;22.72;53.49
48614;BME280;34408;51.426;5.444;2023-08-24T02:42:08;101645.91;;;22.71;53.57
48614;BME280;34408;51.426;5.444;2023-08-24T02:44:36;101636.06;;;22.70;53.75
48614;BME280;34408;51.426;5.444;2023-08-24T02:47:04;101628.94;;;22.69;53.63
48614;BME280;34408;51.426;5.444;2023-08-24T02:49:34;101623.47;;;22.69;54.29
48614;BME280;34408;51.426;5.444;2023-08-24T02:52:02;101617.16;;;22.68;53.76
48614;BME280;34408;51.426;5.444;2023-08-24T02:54:30;101617.44;;;22.67;54.36
48614;BME280;34408;51.426;5.444;2023-08-24T02:56:58;101605.66;;;22.66;53.85
48614;BME280;34408;51.426;5.444;2023-08-24T02:59:26;101599.34;;;22.66;54.29
48614;BME280;34408;51.426;5.444;2023-08-24T03:01:54;101587.88;;;22.64;54.26
48614;BME280;34408;51.426;5.444;2023-08-24T03:04:22;101579.94;;;22.62;54.19
48614;BME280;34408;51.426;5.444;2023-08-24T03:06:51;101576.66;;;22.60;54.17
48614;BME280;34408;51.426;5.444;2023-08-24T03:09:19;101556.66;;;22.60;54.69
48614;BME280;34408;51.426;5.444;2023-08-24T03:11:47;101539.69;;;22.58;54.50
48614;BME280;34408;51.426;5.444;2023-08-24T03:14:15;101530.66;;;22.57;54.72
48614;BME280;34408;51.426;5.444;2023-08-24T03:16:42;101532.84;;;22.55;54.89
48614;BME280;34408;51.426;5.444;2023-08-24T03:19:11;101542.19;;;22.54;55.14
48614;BME280;34408;51.426;5.444;2023-08-24T03:21:40;101559.75;;;22.53;54.89
48614;BME280;34408;51.426;5.444;2023-08-24T03:24:10;101560.84;;;22.52;55.39
48614;BME280;34408;51.426;5.444;2023-08-24T03:26:39;101545.53;;;22.51;55.39
48614;BME280;34408;51.426;5.444;2023-08-24T03:29:07;101531.28;;;22.49;55.37
48614;BME280;34408;51.426;5.444;2023-08-24T03:31:35;101516.78;;;22.49;55.44
48614;BME280;34408;51.426;5.444;2023-08-24T03:34:03;101511.56;;;22.47;56.14
48614;BME280;34408;51.426;5.444;2023-08-24T03:36:31;101500.09;;;22.45;55.89
48614;BME280;34408;51.426;5.444;2023-08-24T03:38:59;101475.72;;;22.44;55.77
48614;BME280;34408;51.426;5.444;2023-08-24T03:41:28;101455.47;;;22.39;55.97
48614;BME280;34408;51.426;5.444;2023-08-24T03:43:56;101441.81;;;22.34;55.89
48614;BME280;34408;51.426;5.444;2023-08-24T03:46:24;101444.53;;;22.39;55.76
48614;BME280;34408;51.426;5.444;2023-08-24T03:48:52;101448.38;;;22.38;55.88
48614;BME280;34408;51.426;5.444;2023-08-24T03:51:19;101429.25;;;22.33;56.20
48614;BME280;34408;51.426;5.444;2023-08-24T03:53:47;101435.25;;;22.35;56.27
48614;BME280;34408;51.426;5.444;2023-08-24T03:56:15;101428.13;;;22.34;56.34
48614;BME280;34408;51.426;5.444;2023-08-24T03:58:44;101428.13;;;22.34;56.37
48614;BME280;34408;51.426;5.444;2023-08-24T04:01:12;101426.78;;;22.32;56.10
48614;BME280;34408;51.426;5.444;2023-08-24T04:03:40;101422.69;;;22.29;56.39
48614;BME280;34408;51.426;5.444;2023-08-24T04:06:08;101413.66;;;22.29;56.34
48614;BME280;34408;51.426;5.444;2023-08-24T04:08:36;101418.59;;;22.27;56.15
48614;BME280;34408;51.426;5.444;2023-08-24T04:11:04;101417.78;;;22.26;56.25
48614;BME280;34408;51.426;5.444;2023-08-24T04:13:30;101422.44;;;22.26;56.39
48614;BME280;34408;51.426;5.444;2023-08-24T04:16:00;101426.28;;;22.25;56.88
48614;BME280;34408;51.426;5.444;2023-08-24T04:18:28;101447.66;;;22.23;56.80
48614;BME280;34408;51.426;5.444;2023-08-24T04:20:56;101460.53;;;22.22;56.97
48614;BME280;34408;51.426;5.444;2023-08-24T04:23:24;101469.56;;;22.23;56.79
48614;BME280;34408;51.426;5.444;2023-08-24T04:25:53;101475.34;;;22.21;56.83
48614;BME280;34408;51.426;5.444;2023-08-24T04:28:21;101471.00;;;22.15;56.60
48614;BME280;34408;51.426;5.444;2023-08-24T04:30:50;101478.34;;;22.20;56.66
48614;BME280;34408;51.426;5.444;2023-08-24T04:33:20;101473.97;;;22.19;56.43
48614;BME280;34408;51.426;5.444;2023-08-24T04:35:49;101473.97;;;22.19;56.61
48614;BME280;34408;51.426;5.444;2023-08-24T04:38:17;101467.72;;;22.13;56.52
48614;BME280;34408;51.426;5.444;2023-08-24T04:40:48;101481.66;;;22.17;56.76
48614;BME280;34408;51.426;5.444;2023-08-24T04:43:16;101486.31;;;22.16;56.84
48614;BME280;34408;51.426;5.444;2023-08-24T04:45:45;101470.50;;;22.08;57.16
48614;BME280;34408;51.426;5.444;2023-08-24T04:48:14;101483.88;;;22.15;57.08
48614;BME280;34408;51.426;5.444;2023-08-24T04:50:44;101486.59;;;22.15;56.47
48614;BME280;34408;51.426;5.444;2023-08-24T04:53:14;101486.06;;;22.13;56.80
48614;BME280;34408;51.426;5.444;2023-08-24T04:55:43;101486.06;;;22.13;56.71
48614;BME280;34408;51.426;5.444;2023-08-24T04:58:12;101475.41;;;22.11;56.62
48614;BME280;34408;51.426;5.444;2023-08-24T05:00:40;101474.59;;;22.11;56.62
48614;BME280;34408;51.426;5.444;2023-08-24T05:03:09;101485.53;;;22.11;56.83
48614;BME280;34408;51.426;5.444;2023-08-24T05:05:37;101475.97;;;22.08;56.80
48614;BME280;34408;51.426;5.444;2023-08-24T05:08:07;101480.63;;;22.07;57.33
48614;BME280;34408;51.426;5.444;2023-08-24T05:10:39;101482.81;;;22.05;57.06
48614;BME280;34408;51.426;5.444;2023-08-24T05:13:07;101492.97;;;22.05;57.06
48614;BME280;34408;51.426;5.444;2023-08-24T05:15:35;101486.13;;;22.02;57.13
48614;BME280;34408;51.426;5.444;2023-08-24T05:18:03;101482.03;;;21.95;57.14
48614;BME280;34408;51.426;5.444;2023-08-24T05:20:32;101470.84;;;21.91;57.21
48614;BME280;34408;51.426;5.444;2023-08-24T05:23:00;101481.75;;;21.96;57.24
48614;BME280;34408;51.426;5.444;2023-08-24T05:25:29;101480.66;;;21.97;57.41
48614;BME280;34408;51.426;5.444;2023-08-24T05:27:57;101475.47;;;21.96;57.17
48614;BME280;34408;51.426;5.444;2023-08-24T05:30:25;101471.91;;;21.95;57.52
48614;BME280;34408;51.426;5.444;2023-08-24T05:32:56;101474.94;;;21.94;57.47
48614;BME280;34408;51.426;5.444;2023-08-24T05:35:23;101480.41;;;21.94;57.62
48614;BME280;34408;51.426;5.444;2023-08-24T05:37:54;101466.19;;;21.92;57.51
48614;BME280;34408;51.426;5.444;2023-08-24T05:40:22;101468.91;;;21.92;57.46
48614;BME280;34408;51.426;5.444;2023-08-24T05:42:51;101457.44;;;21.90;57.53
48614;BME280;34408;51.426;5.444;2023-08-24T05:45:19;101440.50;;;21.83;57.84
48614;BME280;34408;51.426;5.444;2023-08-24T05:47:52;101437.75;;;21.88;57.73
48614;BME280;34408;51.426;5.444;2023-08-24T05:50:20;101444.31;;;21.87;57.89
48614;BME280;34408;51.426;5.444;2023-08-24T05:52:48;101447.06;;;21.87;57.95
48614;BME280;34408;51.426;5.444;2023-08-24T05:55:16;101436.38;;;21.85;58.24
48614;BME280;34408;51.426;5.444;2023-08-24T05:57:44;101424.63;;;21.85;58.01
48614;BME280;34408;51.426;5.444;2023-08-24T06:00:15;101425.44;;;21.85;57.95
48614;BME280;34408;51.426;5.444;2023-08-24T06:02:43;101417.22;;;21.85;58.06
48614;BME280;34408;51.426;5.444;2023-08-24T06:05:11;101416.13;;;21.86;58.16
48614;BME280;34408;51.426;5.444;2023-08-24T06:07:39;101416.94;;;21.87;57.99
48614;BME280;34408;51.426;5.444;2023-08-24T06:10:08;101407.63;;;21.88;57.94
48614;BME280;34408;51.426;5.444;2023-08-24T06:12:36;101406.53;;;21.89;57.54
48614;BME280;34408;51.426;5.444;2023-08-24T06:15:05;101393.38;;;21.91;57.66
48614;BME280;34408;51.426;5.444;2023-08-24T06:17:37;101382.16;;;21.92;57.14
48614;BME280;34408;51.426;5.444;2023-08-24T06:20:06;101388.16;;;21.94;57.37
48614;BME280;34408;51.426;5.444;2023-08-24T06:22:37;101385.97;;;21.96;57.50
48614;BME280;34408;51.426;5.444;2023-08-24T06:25:06;101393.59;;;21.99;57.29
48614;BME280;34408;51.426;5.444;2023-08-24T06:27:35;101401.28;;;22.02;57.19
48614;BME280;34408;51.426;5.444;2023-08-24T06:30:04;101404.53;;;22.04;57.23
48614;BME280;34408;51.426;5.444;2023-08-24T06:32:32;101402.63;;;22.05;57.21
48614;BME280;34408;51.426;5.444;2023-08-24T06:35:02;101403.97;;;22.07;57.18
48614;BME280;34408;51.426;5.444;2023-08-24T06:37:30;101402.06;;;22.08;57.18
48614;BME280;34408;51.426;5.444;2023-08-24T06:39:58;101399.03;;;22.10;57.03
48614;BME280;34408;51.426;5.444;2023-08-24T06:42:25;101396.81;;;22.12;56.93
48614;BME280;34408;51.426;5.444;2023-08-24T06:44:53;101399.28;;;22.13;56.92
48614;BME280;34408;51.426;5.444;2023-08-24T06:47:21;101394.63;;;22.14;57.02
48614;BME280;34408;51.426;5.444;2023-08-24T06:49:50;101392.41;;;22.16;56.90
48614;BME280;34408;51.426;5.444;2023-08-24T06:52:19;101404.72;;;22.18;56.96
48614;BME280;34408;51.426;5.444;2023-08-24T06:54:47;101396.22;;;22.20;57.26
48614;BME280;34408;51.426;5.444;2023-08-24T06:57:20;101399.47;;;22.22;56.88
48614;BME280;34408;51.426;5.444;2023-08-24T06:59:48;101400.00;;;22.24;57.08
48614;BME280;34408;51.426;5.444;2023-08-24T07:02:16;101394.78;;;22.27;57.09
48614;BME280;34408;51.426;5.444;2023-08-24T07:04:44;101406.56;;;22.28;57.11
48614;BME280;34408;51.426;5.444;2023-08-24T07:07:13;101400.78;;;22.29;57.58
48614;BME280;34408;51.426;5.444;2023-08-24T07:09:42;101400.22;;;22.32;57.94
48614;BME280;34408;51.426;5.444;2023-08-24T07:12:10;101382.69;;;22.33;57.46
48614;BME280;34408;51.426;5.444;2023-08-24T07:14:37;101378.03;;;22.34;57.78
48614;BME280;34408;51.426;5.444;2023-08-24T07:17:06;101370.34;;;22.36;57.75
48614;BME280;34408;51.426;5.444;2023-08-24T07:19:33;101369.22;;;22.37;57.70
48614;BME280;34408;51.426;5.444;2023-08-24T07:22:02;101366.19;;;22.38;57.72
48614;BME280;34408;51.426;5.444;2023-08-24T07:24:29;101362.34;;;22.39;57.66
48614;BME280;34408;51.426;5.444;2023-08-24T07:27:12;101362.06;;;22.41;57.63
48614;BME280;34408;51.426;5.444;2023-08-24T07:29:40;101373.03;;;22.41;57.97
48614;BME280;34408;51.426;5.444;2023-08-24T07:32:08;101370.00;;;22.43;57.92
48614;BME280;34408;51.426;5.444;2023-08-24T07:34:36;101370.81;;;22.43;58.10
48614;BME280;34408;51.426;5.444;2023-08-24T07:37:04;101369.72;;;22.44;57.99
48614;BME280;34408;51.426;5.444;2023-08-24T07:39:32;101361.22;;;22.46;57.91
48614;BME280;34408;51.426;5.444;2023-08-24T07:42:01;101358.75;;;22.44;57.72
48614;BME280;34408;51.426;5.444;2023-08-24T07:44:30;101360.09;;;22.47;58.10
48614;BME280;34408;51.426;5.444;2023-08-24T07:46:58;101359.00;;;22.48;58.28
48614;BME280;34408;51.426;5.444;2023-08-24T07:49:27;101357.88;;;22.49;57.95
48614;BME280;34408;51.426;5.444;2023-08-24T07:51:55;101365.28;;;22.48;57.68
48614;BME280;34408;51.426;5.444;2023-08-24T07:54:23;101371.59;;;22.49;57.85
48614;BME280;34408;51.426;5.444;2023-08-24T07:56:51;101361.44;;;22.49;57.96
48614;BME280;34408;51.426;5.444;2023-08-24T07:59:19;101368.56;;;22.50;57.85
48614;BME280;34408;51.426;5.444;2023-08-24T08:01:48;101361.16;;;22.51;58.42
48614;BME280;34408;51.426;5.444;2023-08-24T08:04:16;101368.28;;;22.52;57.94
48614;BME280;34408;51.426;5.444;2023-08-24T08:06:45;101366.34;;;22.52;57.84
48614;BME280;34408;51.426;5.444;2023-08-24T08:09:13;101354.56;;;22.52;57.87
48614;BME280;34408;51.426;5.444;2023-08-24T08:11:40;101357.03;;;22.53;58.04
48614;BME280;34408;51.426;5.444;2023-08-24T08:14:09;101354.28;;;22.53;58.39
48614;BME280;34408;51.426;5.444;2023-08-24T08:16:37;101361.38;;;22.54;58.24
48614;BME280;34408;51.426;5.444;2023-08-24T08:19:06;101353.97;;;22.55;57.89
48614;BME280;34408;51.426;5.444;2023-08-24T08:21:34;101346.56;;;22.55;57.82
48614;BME280;34408;51.426;5.444;2023-08-24T08:24:02;101340.78;;;22.57;58.38
48614;BME280;34408;51.426;5.444;2023-08-24T08:26:30;101340.50;;;22.58;57.95
48614;BME280;34408;51.426;5.444;2023-08-24T08:28:58;101337.47;;;22.60;58.25
48614;BME280;34408;51.426;5.444;2023-08-24T08:31:26;101333.91;;;22.59;58.47
48614;BME280;34408;51.426;5.444;2023-08-24T08:33:54;101344.28;;;22.62;58.27
48614;BME280;34408;51.426;5.444;2023-08-24T08:36:23;101342.06;;;22.64;58.23
48614;BME280;34408;51.426;5.444;2023-08-24T08:38:51;101329.25;;;22.60;58.33
48614;BME280;34408;51.426;5.444;2023-08-24T08:41:22;101331.34;;;22.68;58.97
48614;BME280;34408;51.426;5.444;2023-08-24T08:43:50;101320.09;;;22.69;58.41
48614;BME280;34408;51.426;5.444;2023-08-24T08:46:18;101306.09;;;22.71;58.71
48614;BME280;34408;51.426;5.444;2023-08-24T08:48:46;101295.66;;;22.73;58.62
48614;BME280;34408;51.426;5.444;2023-08-24T08:51:17;101286.34;;;22.74;58.56
48614;BME280;34408;51.426;5.444;2023-08-24T08:53:47;101280.88;;;22.74;58.94
48614;BME280;34408;51.426;5.444;2023-08-24T08:56:16;101268.50;;;22.77;58.36
48614;BME280;34408;51.426;5.444;2023-08-24T08:58:44;101259.47;;;22.76;58.44
48614;BME280;34408;51.426;5.444;2023-08-24T09:01:13;101257.25;;;22.78;58.88
48614;BME280;34408;51.426;5.444;2023-08-24T09:03:42;101257.78;;;22.80;58.99
48614;BME280;34408;51.426;5.444;2023-08-24T09:06:11;101248.69;;;22.85;59.50
48614;BME280;34408;51.426;5.444;2023-08-24T09:08:38;101239.38;;;22.86;59.12
48614;BME280;34408;51.426;5.444;2023-08-24T09:11:08;101216.94;;;22.79;58.99
48614;BME280;34408;51.426;5.444;2023-08-24T09:13:36;101207.00;;;22.88;59.20
48614;BME280;34408;51.426;5.444;2023-08-24T09:16:06;101198.47;;;22.89;59.01
48614;BME280;34408;51.426;5.444;2023-08-24T09:18:36;101209.97;;;22.91;59.10
48614;BME280;34408;51.426;5.444;2023-08-24T09:21:11;101201.44;;;22.93;59.00
48614;BME280;34408;51.426;5.444;2023-08-24T09:23:44;101199.22;;;22.95;58.96
48614;BME280;34408;51.426;5.444;2023-08-24T09:26:14;101189.28;;;22.99;59.39
48614;BME280;34408;51.426;5.444;2023-08-24T09:28:42;101198.31;;;22.99;59.28
48614;BME280;34408;51.426;5.444;2023-08-24T09:31:11;101202.69;;;23.00;59.33
48614;BME280;34408;51.426;5.444;2023-08-24T09:33:42;101213.38;;;23.02;59.31
48614;BME280;34408;51.426;5.444;2023-08-24T09:36:13;101222.13;;;23.04;59.10
48614;BME280;34408;51.426;5.444;2023-08-24T09:38:46;101231.97;;;23.05;59.36
48614;BME280;34408;51.426;5.444;2023-08-24T09:41:16;101242.63;;;23.07;58.95
48614;BME280;34408;51.426;5.444;2023-08-24T09:43:44;101263.47;;;23.08;59.40
48614;BME280;34408;51.426;5.444;2023-08-24T09:46:18;101273.84;;;23.11;59.55
48614;BME280;34408;51.426;5.444;2023-08-24T09:48:53;101276.00;;;23.14;59.48
48614;BME280;34408;51.426;5.444;2023-08-24T09:51:21;101260.34;;;23.14;59.53
48614;BME280;34408;51.426;5.444;2023-08-24T09:53:50;101270.06;;;23.25;59.87
48614;BME280;34408;51.426;5.444;2023-08-24T09:56:20;101280.66;;;23.32;59.89
48614;BME280;34408;51.426;5.444;2023-08-24T09:58:50;101289.63;;;23.37;59.14
48614;BME280;34408;51.426;5.444;2023-08-24T10:01:19;101298.47;;;23.34;59.55
48614;BME280;34408;51.426;5.444;2023-08-24T10:03:51;101296.25;;;23.36;59.69
48614;BME280;34408;51.426;5.444;2023-08-24T10:06:19;101298.69;;;23.38;59.18
48614;BME280;34408;51.426;5.444;2023-08-24T10:08:53;101301.50;;;23.52;59.43
48614;BME280;34408;51.426;5.444;2023-08-24T10:11:26;101301.75;;;23.55;59.34
48614;BME280;34408;51.426;5.444;2023-08-24T10:14:00;101297.63;;;23.53;59.22
48614;BME280;34408;51.426;5.444;2023-08-24T10:16:34;101289.50;;;23.48;59.05
48614;BME280;34408;51.426;5.444;2023-08-24T10:19:03;101289.78;;;23.46;58.97
48614;BME280;34408;51.426;5.444;2023-08-24T10:21:32;101282.28;;;23.52;59.08
48614;BME280;34408;51.426;5.444;2023-08-24T10:24:01;101278.22;;;23.49;59.24
48614;BME280;34408;51.426;5.444;2023-08-24T10:26:32;101278.22;;;23.49;59.13
48614;BME280;34408;51.426;5.444;2023-08-24T10:29:01;101290.00;;;23.50;59.36
48614;BME280;34408;51.426;5.444;2023-08-24T10:31:31;101303.72;;;23.50;59.74
48614;BME280;34408;51.426;5.444;2023-08-24T10:34:00;101314.69;;;23.50;59.93
48614;BME280;34408;51.426;5.444;2023-08-24T10:36:28;101318.78;;;23.52;59.82
48614;BME280;34408;51.426;5.444;2023-08-24T10:39:02;101324.00;;;23.54;60.11
48614;BME280;34408;51.426;5.444;2023-08-24T10:41:48;101337.72;;;23.54;60.46
48614;BME280;34408;51.426;5.444;2023-08-24T10:44:20;101336.66;;;23.50;60.59
48614;BME280;34408;51.426;5.444;2023-08-24T10:47:10;101337.16;;;23.52;60.62
48614;BME280;34408;51.426;5.444;2023-08-24T10:49:40;101355.22;;;23.58;60.61
48614;BME280;34408;51.426;5.444;2023-08-24T10:52:18;101331.56;;;23.62;61.38
48614;BME280;34408;51.426;5.444;2023-08-24T10:54:47;101319.84;;;23.75;60.88
48614;BME280;34408;51.426;5.444;2023-08-24T10:57:22;101311.59;;;23.75;60.79
48614;BME280;34408;51.426;5.444;2023-08-24T11:00:03;101311.38;;;23.72;60.88
48614;BME280;34408;51.426;5.444;2023-08-24T11:02:51;101325.31;;;23.75;61.02
48614;BME280;34408;51.426;5.444;2023-08-24T11:05:27;101323.38;;;23.76;60.91
48614;BME280;34408;51.426;5.444;2023-08-24T11:07:58;101315.16;;;23.76;60.88
48614;BME280;34408;51.426;5.444;2023-08-24T11:10:31;101310.78;;;23.75;60.68
48614;BME280;34408;51.426;5.444;2023-08-24T11:13:11;101294.31;;;23.75;60.92
48614;BME280;34408;51.426;5.444;2023-08-24T11:15:40;101280.28;;;23.76;60.71
48614;BME280;34408;51.426;5.444;2023-08-24T11:18:22;101269.31;;;23.76;61.33
48614;BME280;34408;51.426;5.444;2023-08-24T11:20:53;101267.50;;;23.85;61.13
48614;BME280;34408;51.426;5.444;2023-08-24T11:23:23;101271.66;;;23.83;61.08
48614;BME280;34408;51.426;5.444;2023-08-24T11:25:52;101271.28;;;23.89;61.29
48614;BME280;34408;51.426;5.444;2023-08-24T11:28:25;101271.41;;;23.98;60.88
48614;BME280;34408;51.426;5.444;2023-08-24T11:30:54;101262.06;;;23.99;60.56
48614;BME280;34408;51.426;5.444;2023-08-24T11:33:30;101256.78;;;24.02;60.77
48614;BME280;34408;51.426;5.444;2023-08-24T11:35:58;101243.94;;;23.98;60.42
48614;BME280;34408;51.426;5.444;2023-08-24T11:38:35;101237.13;;;23.95;60.69
48614;BME280;34408;51.426;5.444;2023-08-24T11:41:10;101237.66;;;23.97;60.96
48614;BME280;34408;51.426;5.444;2023-08-24T11:43:40;101231.03;;;23.98;60.64
48614;BME280;34408;51.426;5.444;2023-08-24T11:46:08;101226.56;;;24.02;61.00
48614;BME280;34408;51.426;5.444;2023-08-24T11:48:37;101204.59;;;24.02;60.46
48614;BME280;34408;51.426;5.444;2023-08-24T11:51:08;101195.75;;;24.06;60.91
48614;BME280;34408;51.426;5.444;2023-08-24T11:53:37;101162.81;;;24.06;61.15
48614;BME280;34408;51.426;5.444;2023-08-24T11:56:05;101146.94;;;24.02;60.82
48614;BME280;34408;51.426;5.444;2023-08-24T11:58:33;101117.34;;;23.99;60.48
48614;BME280;34408;51.426;5.444;2023-08-24T12:01:03;101106.66;;;23.98;60.30
48614;BME280;34408;51.426;5.444;2023-08-24T12:03:32;101082.66;;;23.90;60.64
48614;BME280;34408;51.426;5.444;2023-08-24T12:06:00;101098.72;;;23.96;60.43
48614;BME280;34408;51.426;5.444;2023-08-24T12:08:28;101098.72;;;23.96;60.80
48614;BME280;34408;51.426;5.444;2023-08-24T12:10:56;101111.34;;;23.97;60.93
48614;BME280;34408;51.426;5.444;2023-08-24T12:13:24;101127.22;;;24.00;61.36
48614;BME280;34408;51.426;5.444;2023-08-24T12:15:53;101115.09;;;24.01;60.96
48614;BME280;34408;51.426;5.444;2023-08-24T12:18:24;101106.88;;;24.01;60.53
48614;BME280;34408;51.426;5.444;2023-08-24T12:20:51;101118.06;;;24.05;61.05
48614;BME280;34408;51.426;5.444;2023-08-24T12:23:19;101126.81;;;24.07;61.27
48614;BME280;34408;51.426;5.444;2023-08-24T12:25:53;101140.63;;;24.16;62.09
48614;BME280;34408;51.426;5.444;2023-08-24T12:28:21;101159.75;;;24.07;63.36
48614;BME280;34408;51.426;5.444;2023-08-24T12:30:50;101166.97;;;24.17;63.32
48614;BME280;34408;51.426;5.444;2023-08-24T12:33:24;101163.53;;;24.25;62.64
48614;BME280;34408;51.426;5.444;2023-08-24T12:35:52;101166.25;;;24.39;61.87
48614;BME280;34408;51.426;5.444;2023-08-24T12:38:22;101166.56;;;24.51;62.93
48614;BME280;34408;51.426;5.444;2023-08-24T12:40:52;101166.84;;;24.63;62.38
48614;BME280;34408;51.426;5.444;2023-08-24T12:43:20;101162.75;;;24.74;62.16
48614;BME280;34408;51.426;5.444;2023-08-24T12:45:48;101161.44;;;24.58;62.31
48614;BME280;34408;51.426;5.444;2023-08-24T12:48:16;101151.66;;;24.65;62.19
48614;BME280;34408;51.426;5.444;2023-08-24T12:50:45;101154.25;;;24.48;62.69
48614;BME280;34408;51.426;5.444;2023-08-24T12:53:13;101161.28;;;24.41;63.24
48614;BME280;34408;51.426;5.444;2023-08-24T12:55:41;101165.53;;;24.47;62.95
48614;BME280;34408;51.426;5.444;2023-08-24T12:58:08;101174.00;;;24.37;62.98
48614;BME280;34408;51.426;5.444;2023-08-24T13:00:36;101167.06;;;24.39;62.67
48614;BME280;34408;51.426;5.444;2023-08-24T13:03:04;101168.59;;;24.31;62.56